Decker, MT (59025)

7:27 AM MDT on July 30, 2014 (GMT -0600)
Tongue River Reservoir (KMTDECKE2) Elev 3486 ft | 45.13 °N, 106.78 °W | Change Station

Current weather conditions updated 2 seconds ago

Clear
Clear
58.0 °F
Feels Like 58.0 °F
N
0.0
Wind Variable Wind from NNE
Gusts 0.0 mph

Today is forecast to be nearly the same temperature as yesterday.

Today
High -- | Low -- °F
--% Chance of Precip.
Yesterday
High -- | Low -- °F
Precip. -- in
5:49 AM 8:36 PM
Waxing Crescent, 11% visible
Pressure 30.19 in
Visibility 10.0 miles
Clouds Clear
Dew Point 57 °F
Humidity 96%
Rainfall 0.00 in
Snow Depth Not available.
UV 0 out of 12
Pollen 6.60 out of 12
Air Quality Not available.
Flu Activity Not available.
METAR KSHR 301253Z AUTO 02003KT 10SM CLR 13/09 A3027 RMK AO2 SLP224 T01280094

More Conditions Fewer Conditions

Pressure 30.19 in
Visibility 10.0 miles
Clouds Clear
Dew Point 57 °F
Humidity 96%
Rainfall 0.00 in
Snow Depth Not available.
UV 0 out of 12
Pollen 6.60 out of 12
Air Quality Not available.
Flu Activity Not available.
METAR KSHR 301253Z AUTO 02003KT 10SM CLR 13/09 A3027 RMK AO2 SLP224 T01280094

More Conditions Fewer Conditions

10-Day Weather Forecast

Almanac

Astronomy

Jul. 30, 2014 Rise Set
Actual Time 5:49 AM MDT 8:36 PM MDT
Civil Twilight 5:15 AM MDT 9:10 PM MDT
Nautical Twilight 4:32 AM MDT 9:53 PM MDT
Astronomical Twilight 3:41 AM MDT 10:43 PM MDT
Moon 9:36 AM MDT 10:06 PM MDT
Length of Visible Light 15h 54m
Length of Day
14h 46m
Tomorrow will be 2m 22s shorter.
Waxing Crescent, 11% of the Moon is Illuminated
Today
Waxing Crescent
Aug 3
First Quarter
Aug 10
Full
Aug 17
Last Quarter
Aug 25
New

Today's Extremes

State Highs State Lows

Community

WunderPhotos

Upload Photos

1,739,077 photos uploaded!

Nearby

Snow Depth

Station Depth Elevation
Cole Creek 1 in 7850 ft
Burnt Mountain 0 in 5880 ft
White Mill 1 in 8700 ft
Northeast Entrance 0 in 7350 ft
Placer Basin 0 in 8830 ft

Earthquake Activity

City Distance Mag. Time & Date
No recent earthquake activity has been reported nearby.
Minimum magnitude displayed is 2.5.

Coastal Water Temperatures

Place Temperature
No Stations Reporting

Nearby Weather Stations

Station Location Temp. Dew Point Humidity Wind Precip. Elev Updated Type
Tongue River Reservoir, Decker, MT 58.0 °F 57 °F 96% NNE  at  0.0 mph 0.00 in / hr 3486 ft 7:27 AM MDT Rapid Fire
RAWS ASHLAND PORTABLE MT, Birney, MT 63 °F 44 °F 50% NNE  at  4 mph 0.00 in / hr 3934 ft 6:54 AM MDT MADIS

Show More Stations Show Fewer Stations